createdAt,value
2018-09-09T00:01:43.131Z,4.10
2018-09-09T00:04:15.397Z,4.10
2018-09-09T00:06:44.333Z,4.00
2018-09-09T00:09:21.856Z,3.90
2018-09-09T00:11:50.349Z,4.43
2018-09-09T00:14:20.149Z,4.70
2018-09-09T00:16:48.921Z,4.77
2018-09-09T00:19:21.061Z,4.20
2018-09-09T00:21:50.026Z,3.90
2018-09-09T00:24:23.293Z,4.10
2018-09-09T00:26:51.784Z,3.90
2018-09-09T00:29:33.858Z,3.63
2018-09-09T00:32:03.093Z,3.47
2018-09-09T00:34:31.589Z,3.47
2018-09-09T00:37:00.517Z,3.30
2018-09-09T00:39:31.001Z,4.10
2018-09-09T00:41:59.489Z,3.70
2018-09-09T00:44:40.261Z,3.73
2018-09-09T00:47:09.545Z,3.23
2018-09-09T00:49:43.377Z,3.40
2018-09-09T00:52:17.541Z,3.70
2018-09-09T00:54:46.780Z,3.17
2018-09-09T00:57:15.799Z,3.70
2018-09-09T00:59:44.307Z,3.70
2018-09-09T01:02:13.527Z,3.70
2018-09-09T01:04:54.928Z,3.50
2018-09-09T01:07:24.206Z,3.27
2018-09-09T01:09:52.708Z,3.53
2018-09-09T01:12:21.190Z,3.73
2018-09-09T01:14:51.725Z,3.33
2018-09-09T01:17:20.713Z,3.47
2018-09-09T01:20:01.430Z,3.70
2018-09-09T01:22:30.180Z,3.43
2018-09-09T01:24:58.649Z,3.53
2018-09-09T01:27:27.608Z,6.67
2018-09-09T01:30:00.150Z,3.23
2018-09-09T01:32:29.101Z,2.80
2018-09-09T01:35:11.520Z,3.50
2018-09-09T01:37:40.774Z,3.07
2018-09-09T01:40:09.706Z,3.47
2018-09-09T01:42:38.706Z,3.30
2018-09-09T01:45:08.868Z,3.30
2018-09-09T01:47:37.828Z,3.13
2018-09-09T01:50:11.520Z,3.60
2018-09-09T01:52:40.456Z,3.63
2018-09-09T01:55:13.492Z,3.20
2018-09-09T01:57:42.699Z,3.77
2018-09-09T02:00:16.173Z,4.07
2018-09-09T02:02:44.669Z,3.90
2018-09-09T02:05:17.910Z,4.17
2018-09-09T02:07:46.849Z,4.17
2018-09-09T02:10:20.304Z,3.73
2018-09-09T02:12:49.230Z,3.00
2018-09-09T02:15:24.437Z,3.30
2018-09-09T02:17:53.664Z,3.10
2018-09-09T02:20:35.154Z,3.30
2018-09-09T02:23:04.393Z,3.50
2018-09-09T02:25:33.325Z,3.20
2018-09-09T02:28:01.813Z,3.90
2018-09-09T02:30:32.378Z,3.27
2018-09-09T02:33:01.378Z,3.20
2018-09-09T02:35:43.041Z,3.03
2018-09-09T02:38:12.009Z,3.07
2018-09-09T02:40:40.975Z,3.17
2018-09-09T02:43:10.196Z,3.20
2018-09-09T02:45:42.273Z,3.03
2018-09-09T02:48:10.832Z,3.00
2018-09-09T02:50:42.769Z,2.90
2018-09-09T02:53:11.300Z,2.67
2018-09-09T02:55:52.121Z,3.00
2018-09-09T02:58:20.606Z,3.10
2018-09-09T03:00:49.944Z,3.40
2018-09-09T03:03:18.873Z,3.10
2018-09-09T03:05:51.312Z,3.00
2018-09-09T03:08:20.509Z,3.03
2018-09-09T03:11:07.028Z,2.60
2018-09-09T03:13:36.417Z,3.50
2018-09-09T03:16:04.918Z,3.07
2018-09-09T03:18:33.425Z,3.57
2018-09-09T03:21:02.369Z,3.07
2018-09-09T03:23:31.232Z,3.10
2018-09-09T03:26:03.185Z,2.57
2018-09-09T03:28:32.899Z,2.50
2018-09-09T03:31:06.250Z,3.20
2018-09-09T03:33:35.001Z,2.67
2018-09-09T03:36:16.873Z,2.50
2018-09-09T03:38:45.635Z,3.27
2018-09-09T03:41:14.557Z,2.70
2018-09-09T03:43:43.561Z,2.63
2018-09-09T03:46:13.860Z,2.83
2018-09-09T03:48:42.869Z,2.60
2018-09-09T03:51:16.573Z,2.63
2018-09-09T03:53:45.388Z,2.30
2018-09-09T03:56:26.672Z,2.70
2018-09-09T03:58:55.646Z,2.43
2018-09-09T04:01:24.187Z,2.50
2018-09-09T04:03:53.125Z,2.40
2018-09-09T04:06:25.126Z,2.40
2018-09-09T04:08:53.679Z,2.40
2018-09-09T04:11:26.533Z,2.33
2018-09-09T04:13:55.821Z,2.30
2018-09-09T04:16:28.121Z,2.20
2018-09-09T04:18:56.697Z,2.20
2018-09-09T04:21:30.676Z,2.50
2018-09-09T04:23:59.267Z,2.53
2018-09-09T04:26:32.240Z,2.50
2018-09-09T04:29:00.745Z,1.97
2018-09-09T04:31:34.241Z,2.40
2018-09-09T04:34:03.490Z,2.17
2018-09-09T04:36:37.227Z,2.47
2018-09-09T04:39:09.217Z,2.20
2018-09-09T04:41:40.856Z,2.43
2018-09-09T04:44:11.041Z,2.50
2018-09-09T04:46:44.356Z,2.23
2018-09-09T04:49:13.590Z,2.23
2018-09-09T04:51:46.978Z,2.17
2018-09-09T04:54:15.460Z,2.30
2018-09-09T04:56:56.440Z,2.13
2018-09-09T04:59:24.964Z,2.30
2018-09-09T05:01:54.168Z,2.20
2018-09-09T05:04:23.150Z,2.40
2018-09-09T05:06:54.791Z,2.60
2018-09-09T05:09:23.629Z,2.47
2018-09-09T05:11:57.022Z,2.43
2018-09-09T05:14:25.536Z,2.27
2018-09-09T05:16:59.681Z,2.40
2018-09-09T05:19:28.613Z,2.70
2018-09-09T05:22:02.137Z,2.47
2018-09-09T05:24:30.932Z,2.70
2018-09-09T05:29:32.664Z,2.43
2018-09-09T05:32:01.619Z,2.13
2018-09-09T05:34:30.108Z,2.67
2018-09-09T05:36:59.343Z,3.60
2018-09-09T05:39:28.289Z,3.27
2018-09-09T05:41:57.219Z,2.40
2018-09-09T05:44:26.446Z,3.40
2018-09-09T05:46:55.369Z,2.57
2018-09-09T05:49:24.377Z,2.43
2018-09-09T05:51:52.957Z,2.40
2018-09-09T05:54:22.316Z,2.77
2018-09-09T05:56:51.522Z,2.37
2018-09-09T05:59:32.246Z,2.63
2018-09-09T06:02:01.565Z,3.30
2018-09-09T06:04:30.065Z,2.80
2018-09-09T06:06:58.580Z,2.57
2018-09-09T06:09:29.515Z,2.40
2018-09-09T06:11:58.457Z,3.17
2018-09-09T06:14:39.466Z,2.57
2018-09-09T06:17:09.706Z,2.47
2018-09-09T06:19:38.193Z,2.47
2018-09-09T06:22:06.688Z,2.57
2018-09-09T06:24:37.209Z,2.70
2018-09-09T06:27:06.193Z,2.30
2018-09-09T06:29:39.189Z,2.40
2018-09-09T06:32:08.417Z,3.10
2018-09-09T06:34:43.607Z,2.50
2018-09-09T06:37:12.565Z,3.10
2018-09-09T06:39:45.375Z,2.50
2018-09-09T06:42:14.327Z,2.30
2018-09-09T06:44:48.485Z,2.63
2018-09-09T06:47:16.974Z,2.37
2018-09-09T06:49:59.078Z,2.67
2018-09-09T06:52:27.610Z,6.77
2018-09-09T06:54:56.592Z,3.13
2018-09-09T06:57:26.132Z,2.90
2018-09-09T06:59:55.169Z,2.33
2018-09-09T07:02:24.204Z,2.70
2018-09-09T07:04:58.049Z,2.70
2018-09-09T07:07:26.563Z,2.20
2018-09-09T07:10:00.177Z,2.60
2018-09-09T07:12:28.973Z,2.07
2018-09-09T07:15:02.674Z,2.47
2018-09-09T07:17:31.623Z,2.40
2018-09-09T07:20:06.165Z,2.07
2018-09-09T07:22:35.123Z,2.30
2018-09-09T07:25:10.410Z,2.47
2018-09-09T07:27:39.366Z,2.17
2018-09-09T07:30:20.078Z,2.13
2018-09-09T07:32:48.853Z,2.17
2018-09-09T07:35:18.274Z,2.10
2018-09-09T07:37:46.840Z,2.33
2018-09-09T07:40:18.663Z,2.10
2018-09-09T07:42:47.161Z,2.10
2018-09-09T07:45:20.478Z,2.30
2018-09-09T07:47:49.683Z,2.17
2018-09-09T07:50:31.183Z,2.08
2018-09-09T07:52:59.997Z,2.42
2018-09-09T07:55:28.973Z,2.00
2018-09-09T07:57:57.475Z,1.80
2018-09-09T08:00:27.800Z,1.50
2018-09-09T08:02:56.725Z,1.70
2018-09-09T08:05:30.694Z,1.93
2018-09-09T08:07:59.613Z,1.55
2018-09-09T08:10:41.742Z,1.73
2018-09-09T08:13:10.521Z,1.83
2018-09-09T08:15:39.022Z,1.87
2018-09-09T08:18:08.001Z,1.80
2018-09-09T08:20:38.751Z,1.93
2018-09-09T08:23:07.782Z,1.80
2018-09-09T08:25:49.610Z,2.10
2018-09-09T08:28:18.831Z,1.70
2018-09-09T08:30:47.356Z,2.00
2018-09-09T08:33:16.366Z,1.70
2018-09-09T08:35:46.828Z,1.50
2018-09-09T08:38:15.320Z,1.50
2018-09-09T08:40:56.954Z,1.40
2018-09-09T08:43:26.181Z,1.20
2018-09-09T08:45:55.140Z,1.80
2018-09-09T08:48:24.098Z,1.50
2018-09-09T08:50:55.381Z,1.50
2018-09-09T08:53:23.880Z,1.37
2018-09-09T08:56:04.917Z,1.60
2018-09-09T08:58:34.147Z,1.40
2018-09-09T09:01:02.660Z,1.43
2018-09-09T09:03:31.672Z,1.50
2018-09-09T09:06:03.133Z,1.60
2018-09-09T09:08:32.092Z,1.50
2018-09-09T09:11:12.902Z,1.50
2018-09-09T09:13:41.705Z,1.70
2018-09-09T09:16:10.247Z,1.93
2018-09-09T09:18:39.283Z,1.33
2018-09-09T09:21:13.423Z,1.40
2018-09-09T09:23:42.265Z,1.70
2018-09-09T09:26:23.654Z,1.40
2018-09-09T09:28:52.881Z,1.37
2018-09-09T09:31:21.894Z,1.50
2018-09-09T09:33:50.376Z,1.40
2018-09-09T09:36:19.825Z,1.40
2018-09-09T09:38:48.794Z,1.53
2018-09-09T09:41:22.189Z,1.70
2018-09-09T09:43:51.069Z,1.60
2018-09-09T09:46:24.578Z,1.50
2018-09-09T09:48:53.069Z,1.70
2018-09-09T09:51:30.149Z,1.50
2018-09-09T09:53:59.151Z,1.40
2018-09-09T09:56:29.565Z,1.77
2018-09-09T09:58:58.519Z,1.40
2018-09-09T10:01:32.073Z,1.70
2018-09-09T10:04:01.049Z,1.67
2018-09-09T10:06:42.846Z,1.83
2018-09-09T10:09:12.348Z,1.50
2018-09-09T10:11:40.795Z,1.40
2018-09-09T10:14:09.809Z,1.70
2018-09-09T10:16:38.624Z,1.50
2018-09-09T10:19:08.066Z,1.50
2018-09-09T10:21:40.777Z,1.60
2018-09-09T10:24:09.949Z,1.40
2018-09-09T10:26:38.425Z,2.30
2018-09-09T10:29:07.358Z,1.47
2018-09-09T10:31:36.247Z,1.40
2018-09-09T10:34:05.219Z,1.50
2018-09-09T10:36:34.173Z,1.37
2018-09-09T10:39:03.245Z,1.20
2018-09-09T10:41:32.226Z,1.70
2018-09-09T10:44:01.173Z,1.30
2018-09-09T10:46:30.626Z,1.10
2018-09-09T10:49:00.163Z,1.53
2018-09-09T10:51:29.421Z,1.40
2018-09-09T10:54:01.662Z,1.53
2018-09-09T10:56:30.686Z,1.73
2018-09-09T10:59:03.732Z,1.60
2018-09-09T11:01:36.305Z,1.50
2018-09-09T11:04:09.255Z,1.40
2018-09-09T11:06:38.766Z,1.40
2018-09-09T11:09:19.973Z,1.33
2018-09-09T11:11:48.814Z,1.20
2018-09-09T11:14:17.824Z,1.20
2018-09-09T11:16:47.182Z,1.50
2018-09-09T11:19:17.455Z,1.47
2018-09-09T11:21:45.945Z,1.40
2018-09-09T11:24:18.953Z,1.30
2018-09-09T11:26:48.190Z,1.80
2018-09-09T11:29:21.809Z,1.40
2018-09-09T11:31:50.321Z,1.37
2018-09-09T11:34:24.498Z,1.60
2018-09-09T11:36:53.005Z,1.80
2018-09-09T11:39:27.721Z,1.50
2018-09-09T11:41:57.132Z,1.30
2018-09-09T11:44:29.169Z,1.40
2018-09-09T11:46:58.153Z,1.23
2018-09-09T11:49:30.801Z,1.10
2018-09-09T11:51:59.906Z,1.30
2018-09-09T11:54:33.485Z,1.10
2018-09-09T11:57:02.838Z,1.97
2018-09-09T11:59:35.668Z,1.20
2018-09-09T12:02:04.708Z,1.53
2018-09-09T12:04:38.614Z,1.10
2018-09-09T12:07:07.579Z,1.30
2018-09-09T12:09:41.438Z,1.30
2018-09-09T12:12:10.689Z,1.10
2018-09-09T12:14:44.392Z,1.30
2018-09-09T12:17:13.352Z,1.57
2018-09-09T12:19:46.013Z,1.30
2018-09-09T12:22:14.558Z,1.30
2018-09-09T12:24:49.774Z,1.20
2018-09-09T12:27:18.909Z,1.60
2018-09-09T12:29:59.657Z,1.10
2018-09-09T12:32:28.921Z,1.37
2018-09-09T12:34:57.917Z,1.30
2018-09-09T12:37:26.927Z,1.17
2018-09-09T12:39:59.483Z,1.30
2018-09-09T12:42:28.494Z,1.30
2018-09-09T12:45:05.745Z,1.10
2018-09-09T12:47:39.745Z,1.30
2018-09-09T12:50:08.720Z,1.27
2018-09-09T12:52:37.802Z,1.10
2018-09-09T12:55:07.982Z,1.27
2018-09-09T12:57:36.929Z,1.17
2018-09-09T13:00:11.429Z,1.57
2018-09-09T13:02:40.699Z,1.30
2018-09-09T13:05:14.122Z,1.17
2018-09-09T13:07:42.754Z,1.30
2018-09-09T13:10:15.324Z,1.10
2018-09-09T13:12:49.402Z,1.33
2018-09-09T13:15:18.604Z,1.20
2018-09-09T13:17:47.645Z,1.30
2018-09-09T13:20:21.860Z,1.30
2018-09-09T13:22:50.805Z,1.52
2018-09-09T13:25:23.175Z,1.47
2018-09-09T13:27:52.134Z,1.30
2018-09-09T13:30:25.830Z,1.20
2018-09-09T13:35:31.254Z,1.07
2018-09-09T13:37:59.792Z,1.10
2018-09-09T13:40:31.401Z,1.30
2018-09-09T13:43:00.390Z,1.07
2018-09-09T13:45:33.603Z,1.00
2018-09-09T13:48:02.517Z,1.10
2018-09-09T13:50:44.141Z,0.90
2018-09-09T13:53:13.219Z,1.33
2018-09-09T13:55:42.025Z,1.10
2018-09-09T13:58:11.075Z,1.50
2018-09-09T14:00:41.891Z,1.00
2018-09-09T14:03:10.864Z,1.60
2018-09-09T14:05:43.746Z,0.98
2018-09-09T14:08:12.993Z,1.10
2018-09-09T14:10:46.405Z,1.12
2018-09-09T14:13:15.362Z,0.90
2018-09-09T14:15:48.984Z,1.20
2018-09-09T14:18:17.497Z,1.00
2018-09-09T14:20:51.853Z,1.37
2018-09-09T14:23:20.657Z,4.55
2018-09-09T14:25:55.439Z,6.40
2018-09-09T14:28:24.449Z,2.50
2018-09-09T14:31:06.349Z,1.25
2018-09-09T14:33:35.310Z,1.77
2018-09-09T14:36:04.649Z,1.50
2018-09-09T14:38:33.636Z,1.40
2018-09-09T14:41:04.014Z,7.65
2018-09-09T14:43:32.852Z,7.42
2018-09-09T14:46:08.945Z,2.30
2018-09-09T14:48:37.853Z,1.33
2018-09-09T14:51:19.054Z,2.30
2018-09-09T14:53:48.069Z,1.67
2018-09-09T14:56:16.870Z,1.40
2018-09-09T14:58:45.400Z,1.80
2018-09-09T15:01:15.012Z,1.60
2018-09-09T15:03:44.280Z,1.93
2018-09-09T15:06:17.469Z,1.70
2018-09-09T15:08:46.702Z,16.23
2018-09-09T15:11:21.742Z,12.13
2018-09-09T15:13:50.257Z,4.50
2018-09-09T15:16:31.549Z,3.08
2018-09-09T15:19:00.689Z,6.53
2018-09-09T15:21:30.138Z,3.70
2018-09-09T15:23:59.097Z,6.42
2018-09-09T15:26:27.739Z,13.53
2018-09-09T15:28:56.690Z,16.15
2018-09-09T15:31:37.766Z,146.07
2018-09-09T15:34:06.928Z,165.97
2018-09-09T15:36:36.204Z,132.73
2018-09-09T15:39:06.517Z,21.57
2018-09-09T15:41:35.624Z,5.47
2018-09-09T15:44:04.771Z,2.60
2018-09-09T15:46:36.690Z,1.50
2018-09-09T15:49:05.921Z,1.37
2018-09-09T15:51:46.851Z,0.95
2018-09-09T15:54:15.405Z,1.20
2018-09-09T15:56:44.639Z,1.00
2018-09-09T15:59:13.616Z,1.20
2018-09-09T16:01:55.682Z,1.20
2018-09-09T16:04:24.267Z,1.20
2018-09-09T16:06:53.252Z,1.20
2018-09-09T16:11:52.150Z,1.30
2018-09-09T16:14:20.941Z,1.47
2018-09-09T16:17:02.825Z,1.43
2018-09-09T16:19:31.317Z,1.10
2018-09-09T16:21:59.988Z,1.07
2018-09-09T16:24:28.722Z,1.00
2018-09-09T16:27:00.872Z,1.10
2018-09-09T16:29:32.341Z,1.17
2018-09-09T16:32:04.556Z,1.03
2018-09-09T16:34:33.809Z,1.30
2018-09-09T16:37:06.365Z,1.20
2018-09-09T16:39:35.551Z,1.43
2018-09-09T16:42:13.142Z,1.10
2018-09-09T16:44:42.593Z,1.60
2018-09-09T16:47:14.888Z,1.10
2018-09-09T16:49:43.991Z,1.43
2018-09-09T16:52:17.359Z,1.20
2018-09-09T16:54:46.389Z,1.30
2018-09-09T16:57:17.671Z,1.27
2018-09-09T16:59:47.171Z,1.10
2018-09-09T17:02:28.938Z,1.20
2018-09-09T17:04:57.996Z,1.07
2018-09-09T17:07:27.106Z,1.53
2018-09-09T17:09:56.138Z,1.23
2018-09-09T17:12:24.697Z,1.40
2018-09-09T17:14:53.657Z,1.40
2018-09-09T17:17:35.446Z,1.50
2018-09-09T17:20:04.140Z,2.47
2018-09-09T17:22:33.697Z,1.10
2018-09-09T17:25:02.654Z,1.33
2018-09-09T17:27:31.985Z,1.27
2018-09-09T17:30:01.229Z,1.80
2018-09-09T17:32:43.415Z,1.20
2018-09-09T17:35:12.693Z,1.10
2018-09-09T17:37:41.201Z,1.50
2018-09-09T17:40:10.181Z,1.07
2018-09-09T17:42:40.713Z,1.40
2018-09-09T17:45:09.690Z,1.20
2018-09-09T17:47:50.685Z,1.27
2018-09-09T17:50:19.520Z,1.30
2018-09-09T17:52:48.075Z,1.70
2018-09-09T17:55:16.619Z,1.50
2018-09-09T17:57:49.372Z,1.50
2018-09-09T18:00:18.346Z,1.40
2018-09-09T18:02:59.643Z,1.50
2018-09-09T18:05:28.992Z,1.77
2018-09-09T18:07:58.006Z,1.50
2018-09-09T18:10:26.966Z,1.30
2018-09-09T18:12:55.985Z,1.33
2018-09-09T18:15:24.970Z,1.30
2018-09-09T18:17:58.851Z,1.40
2018-09-09T18:20:27.675Z,1.63
2018-09-09T18:23:01.627Z,1.73
2018-09-09T18:25:30.185Z,1.50
2018-09-09T18:28:04.081Z,1.90
2018-09-09T18:30:32.632Z,1.70
2018-09-09T18:33:07.359Z,1.63
2018-09-09T18:35:37.597Z,2.60
2018-09-09T18:38:11.604Z,2.80
2018-09-09T18:40:40.111Z,2.70
2018-09-09T18:43:15.744Z,2.07
2018-09-09T18:45:44.822Z,1.83
2018-09-09T18:48:26.013Z,2.70
2018-09-09T18:50:54.795Z,2.03
2018-09-09T18:53:23.804Z,1.60
2018-09-09T18:55:52.326Z,1.97
2018-09-09T18:58:21.132Z,2.23
2018-09-09T19:00:50.125Z,3.00
2018-09-09T19:03:22.997Z,2.80
2018-09-09T19:06:09.267Z,2.63
2018-09-09T19:08:38.906Z,2.27
2018-09-09T19:11:07.445Z,2.67
2018-09-09T19:13:36.841Z,2.13
2018-09-09T19:16:05.504Z,2.20
2018-09-09T19:18:34.614Z,2.90
2018-09-09T19:21:04.225Z,2.57
2018-09-09T19:23:33.416Z,1.90
2018-09-09T19:26:02.426Z,2.00
2018-09-09T19:28:44.469Z,2.07
2018-09-09T19:31:13.402Z,1.80
2018-09-09T19:33:42.910Z,2.30
2018-09-09T19:36:11.901Z,2.40
2018-09-09T19:38:40.928Z,2.40
2018-09-09T19:41:09.909Z,1.83
2018-09-09T19:43:43.735Z,1.80
2018-09-09T19:46:12.880Z,1.70
2018-09-09T19:48:47.692Z,1.70
2018-09-09T19:53:45.382Z,1.77
2018-09-09T19:56:13.964Z,1.80
2018-09-09T19:58:42.666Z,2.00
2018-09-09T20:01:12.373Z,2.07
2018-09-09T20:03:41.462Z,1.80
2018-09-09T20:06:10.419Z,1.67
2018-09-09T20:08:39.279Z,1.80
2018-09-09T20:11:08.285Z,1.70
2018-09-09T20:13:37.273Z,1.60
2018-09-09T20:16:06.082Z,1.50
2018-09-09T20:18:35.063Z,1.57
2018-09-09T20:21:05.270Z,1.77
2018-09-09T20:23:34.719Z,1.73
2018-09-09T20:26:12.067Z,1.63
2018-09-09T20:28:41.378Z,1.80
2018-09-09T20:31:14.295Z,2.20
2018-09-09T20:33:42.787Z,1.80
2018-09-09T20:36:14.137Z,1.83
2018-09-09T20:38:42.684Z,1.80
2018-09-09T20:41:16.386Z,1.60
2018-09-09T20:43:45.672Z,2.00
2018-09-09T20:46:27.058Z,1.90
2018-09-09T20:48:56.297Z,1.90
2018-09-09T20:51:25.263Z,2.20
2018-09-09T20:53:54.232Z,2.30
2018-09-09T20:56:23.097Z,2.00
2018-09-09T20:58:52.062Z,2.10
2018-09-09T21:01:27.163Z,1.87
2018-09-09T21:03:56.485Z,2.00
2018-09-09T21:06:28.972Z,1.60
2018-09-09T21:08:57.549Z,1.80
2018-09-09T21:11:39.490Z,2.00
2018-09-09T21:14:08.363Z,1.80
2018-09-09T21:16:37.605Z,1.80
2018-09-09T21:19:06.686Z,1.63
2018-09-09T21:21:36.218Z,1.70
2018-09-09T21:24:05.493Z,1.87
2018-09-09T21:26:46.685Z,2.03
2018-09-09T21:29:15.468Z,1.90
2018-09-09T21:31:44.457Z,1.80
2018-09-09T21:34:13.389Z,1.60
2018-09-09T21:36:43.157Z,1.80
2018-09-09T21:39:12.108Z,1.70
2018-09-09T21:41:45.838Z,1.60
2018-09-09T21:44:14.661Z,1.90
2018-09-09T21:46:47.865Z,1.77
2018-09-09T21:49:17.249Z,1.60
2018-09-09T21:51:50.594Z,1.30
2018-09-09T21:54:19.568Z,1.70
2018-09-09T21:56:53.333Z,1.87
2018-09-09T21:59:21.827Z,1.47
2018-09-09T22:01:56.065Z,1.50
2018-09-09T22:04:25.295Z,1.93
2018-09-09T22:06:58.545Z,1.73
2018-09-09T22:09:27.037Z,1.87
2018-09-09T22:12:01.170Z,1.30
2018-09-09T22:14:29.669Z,1.70
2018-09-09T22:17:02.576Z,1.30
2018-09-09T22:19:31.776Z,1.90
2018-09-09T22:22:00.723Z,1.40
2018-09-09T22:24:29.658Z,1.60
2018-09-09T22:26:58.925Z,1.50
2018-09-09T22:29:27.939Z,1.53
2018-09-09T22:31:56.933Z,1.70
2018-09-09T22:34:26.261Z,1.70
2018-09-09T22:36:55.237Z,1.63
2018-09-09T22:39:24.189Z,1.40
2018-09-09T22:41:52.976Z,1.40
2018-09-09T22:44:21.917Z,1.60
2018-09-09T22:46:50.891Z,1.70
2018-09-09T22:49:23.291Z,1.30
2018-09-09T22:51:52.438Z,1.70
2018-09-09T22:54:33.265Z,1.50
2018-09-09T22:57:02.546Z,1.70
2018-09-09T22:59:31.509Z,1.57
2018-09-09T23:02:00.502Z,1.60
2018-09-09T23:04:30.292Z,1.97
2018-09-09T23:06:58.789Z,1.60
2018-09-09T23:09:32.765Z,1.70
2018-09-09T23:12:02.032Z,1.80
2018-09-09T23:14:34.926Z,1.57
2018-09-09T23:17:03.921Z,1.77
2018-09-09T23:19:37.349Z,1.50
2018-09-09T23:22:06.314Z,1.87
2018-09-09T23:24:39.564Z,1.30
2018-09-09T23:27:08.773Z,1.80
2018-09-09T23:29:42.121Z,1.60
2018-09-09T23:32:11.106Z,1.43
2018-09-09T23:34:46.041Z,1.53
2018-09-09T23:37:14.971Z,1.40
2018-09-09T23:39:48.813Z,1.80
2018-09-09T23:42:18.006Z,1.50
2018-09-09T23:44:51.922Z,1.50
2018-09-09T23:47:20.436Z,1.80
2018-09-09T23:49:53.917Z,1.50
2018-09-09T23:52:22.873Z,1.70
2018-09-09T23:54:55.957Z,1.50
2018-09-09T23:57:25.342Z,1.57
2018-09-09T23:59:57.832Z,1.50
